Humidity-temperature Sensor

Selected Measurement Type: Air Temperature

 
Air Temperature [°C]     6 entries per hour
Showing data from 8/28/2017 (00:00:00 Z) to 8/27/2017 (00:01:00 Z)
Previous Next [ Day | 3-Days | 7-Days ]
First Last
Prev [ Day | 3-Days | 7-Days ] Next
First Last

Start Time:     :
End Time:     :     
Time (in GMT) :00 :50 :40 :30 :20 :10
Previous Next [ Day | 3-Days | 7-Days ]
First Last
Prev [ Day | 3-Days | 7-Days ] Next
First Last


123 => good data
MM => data is determined as missing
-- => data not received/configured
Back to Top Back to Top
8/28/2017 00:00 to 23:10 29.18 29.06 29.04 29.01 29.13 29.09
8/27/2017 23:00 to 22:10 28.96 29.10 29.14 29.22 29.19 29.11
8/27/2017 22:00 to 21:10 -- -- -- -- -- --
8/27/2017 21:00 to 20:10 29.37 29.22 29.28 29.21 29.30 29.20
8/27/2017 20:00 to 19:10 29.23 29.25 29.06 29.03 29.11 29.16
8/27/2017 19:00 to 18:10 29.19 29.07 29.22 29.19 29.19 28.96
8/27/2017 18:00 to 17:10 29.05 28.95 28.98 28.77 28.57 28.62
8/27/2017 17:00 to 16:10 28.52 28.64 28.67 28.65 28.62 28.58
8/27/2017 16:00 to 15:10 28.72 28.73 28.57 28.49 28.53 28.63
8/27/2017 15:00 to 14:10 28.62 28.46 28.60 28.57 28.65 28.62
8/27/2017 14:00 to 13:10 28.54 28.60 28.64 28.62 28.74 28.56
8/27/2017 13:00 to 12:10 28.59 28.69 28.66 28.72 28.65 28.80
8/27/2017 12:00 to 11:10 28.71 28.74 28.69 28.68 28.77 28.77
8/27/2017 11:00 to 10:10 28.71 28.75 28.73 28.77 28.64 28.80
8/27/2017 10:00 to 9:10 28.76 28.80 28.71 28.78 28.83 28.70
8/27/2017 09:00 to 8:10 28.85 28.74 28.90 28.81 28.83 28.92
8/27/2017 08:00 to 7:10 28.82 28.93 28.85 28.84 28.83 28.87
8/27/2017 07:00 to 6:10 28.85 28.90 28.88 28.86 28.88 28.84
8/27/2017 06:00 to 5:10 28.85 28.99 28.85 28.96 28.96 29.13
8/27/2017 05:00 to 4:10 29.25 29.39 29.40 29.43 29.58 29.59
8/27/2017 04:00 to 3:10 29.47 29.52 29.44 29.40 29.16 29.36
8/27/2017 03:00 to 2:10 29.45 29.34 29.28 29.13 29.19 29.15
8/27/2017 02:00 to 1:10 29.23 29.10 29.06 29.12 29.04 29.03
8/27/2017 01:00 to 0:10 29.01 28.92 29.13 28.97 28.95 28.95